Time;durP1;ratioP1;P1;durP2;ratioP2;P2;SDS_P1;SDS_P2;PMS_P1;PMS_P2;Temp;Humidity;BMP_temperature;BMP_pressure;BME280_temperature;BME280_humidity;BME280_pressure;Samples;Min_cycle;Max_cycle;Signal;HPM_P1;HPM_P2
2022/06/01 00:01:14;;;;;;;11.80;7.00;;;13.00;99.90;;;;;;7342412;19;108462;-84
2022/06/01 00:03:42;;;;;;;8.65;6.72;;;13.00;99.90;;;;;;7339957;19;107919;-84
2022/06/01 00:06:11;;;;;;;11.35;7.22;;;13.00;99.90;;;;;;7336034;19;107880;-84
2022/06/01 00:08:39;;;;;;;9.07;7.13;;;12.90;99.90;;;;;;7340646;19;108017;-84
2022/06/01 00:11:08;;;;;;;8.02;6.70;;;12.90;99.90;;;;;;7340886;19;108158;-84
2022/06/01 00:13:35;;;;;;;8.18;7.28;;;12.90;99.90;;;;;;7339305;19;107393;-84
2022/06/01 00:16:03;;;;;;;7.82;6.47;;;12.90;99.90;;;;;;7339494;19;109222;-84
2022/06/01 00:18:30;;;;;;;8.77;6.68;;;12.80;99.90;;;;;;7338245;19;107281;-85
2022/06/01 00:20:57;;;;;;;7.30;6.60;;;12.80;99.90;;;;;;7338136;19;108731;-84
2022/06/01 00:23:24;;;;;;;7.88;7.13;;;12.80;99.90;;;;;;7345588;19;110624;-85
2022/06/01 00:25:52;;;;;;;7.10;6.40;;;12.80;99.90;;;;;;7337920;19;109141;-84
2022/06/01 00:28:19;;;;;;;8.40;6.97;;;12.70;99.90;;;;;;7339879;19;108281;-84
2022/06/01 00:30:46;;;;;;;9.57;6.40;;;12.70;99.90;;;;;;7339623;19;107876;-84
2022/06/01 00:33:13;;;;;;;7.78;7.07;;;12.70;99.90;;;;;;7339114;19;110692;-85
2022/06/01 00:35:40;;;;;;;8.27;7.40;;;12.60;99.90;;;;;;7338744;19;108826;-84
2022/06/01 00:38:08;;;;;;;7.85;7.03;;;12.50;99.90;;;;;;7337779;19;107884;-85
2022/06/01 00:40:38;;;;;;;8.82;6.70;;;12.40;99.90;;;;;;7337809;19;108548;-84
2022/06/01 00:43:36;;;;;;;11.52;7.00;;;12.30;99.90;;;;;;7338843;19;109074;-84
2022/06/01 00:46:03;;;;;;;9.85;7.28;;;12.30;99.90;;;;;;7343181;19;107553;-84
2022/06/01 00:48:32;;;;;;;8.23;7.32;;;12.30;99.90;;;;;;7336658;19;109116;-83
2022/06/01 00:51:21;;;;;;;6.82;6.22;;;12.30;99.90;;;;;;7339321;19;108108;-84
2022/06/01 00:53:53;;;;;;;8.90;6.78;;;12.30;99.90;;;;;;7336444;19;107583;-84
2022/06/01 00:56:27;;;;;;;7.32;6.45;;;12.30;99.90;;;;;;7334940;19;108697;-85
2022/06/01 00:58:56;;;;;;;7.57;6.88;;;12.30;99.90;;;;;;7337734;19;107961;-84
2022/06/01 01:01:25;;;;;;;7.68;6.85;;;12.30;99.90;;;;;;7338534;19;108840;-84
2022/06/01 01:03:58;;;;;;;7.80;7.00;;;12.30;99.90;;;;;;7337606;19;108775;-84
2022/06/01 01:06:32;;;;;;;8.50;7.70;;;12.20;99.90;;;;;;7342863;19;108140;-83
2022/06/01 01:09:00;;;;;;;12.07;8.65;;;12.20;99.90;;;;;;7337930;19;109223;-84
2022/06/01 01:11:54;;;;;;;12.30;8.55;;;12.20;99.90;;;;;;7337152;19;107582;-84
2022/06/01 01:14:26;;;;;;;9.00;8.20;;;12.20;99.90;;;;;;7336038;19;110679;-84
2022/06/01 01:16:54;;;;;;;8.48;7.43;;;12.10;99.90;;;;;;7338032;19;111327;-84
2022/06/01 01:19:31;;;;;;;9.05;8.10;;;12.10;99.90;;;;;;7343232;19;111258;-84
2022/06/01 01:22:13;;;;;;;9.32;7.95;;;12.20;99.90;;;;;;7344204;19;108053;-84
2022/06/01 01:25:01;;;;;;;9.13;7.75;;;12.10;99.90;;;;;;7345304;19;109266;-85
2022/06/01 01:27:29;;;;;;;8.25;7.22;;;12.10;99.90;;;;;;7344961;19;107281;-85
2022/06/01 01:29:56;;;;;;;8.30;7.32;;;12.00;99.90;;;;;;7349923;19;108744;-84
2022/06/01 01:32:23;;;;;;;9.45;7.35;;;12.10;99.90;;;;;;7344922;19;108358;-84
2022/06/01 01:34:50;;;;;;;8.30;7.05;;;12.10;99.90;;;;;;7342105;19;108115;-85
2022/06/01 01:37:22;;;;;;;8.05;6.65;;;12.00;99.90;;;;;;7344181;19;109100;-84
2022/06/01 01:39:52;;;;;;;6.40;5.68;;;12.00;99.90;;;;;;7343846;19;107225;-85
2022/06/01 01:42:19;;;;;;;7.93;6.18;;;12.00;99.90;;;;;;7343076;19;108154;-84
2022/06/01 01:45:08;;;;;;;6.88;5.68;;;12.00;99.90;;;;;;7344330;19;112510;-84
2022/06/01 01:47:36;;;;;;;6.30;5.47;;;12.00;99.90;;;;;;7344770;19;107975;-85
2022/06/01 01:50:08;;;;;;;7.47;6.60;;;11.90;99.90;;;;;;7344300;19;111821;-84
2022/06/01 01:52:36;;;;;;;7.25;6.57;;;11.90;99.90;;;;;;7349351;19;108844;-84
2022/06/01 01:55:27;;;;;;;7.22;6.07;;;11.80;99.90;;;;;;7342541;19;111268;-84
2022/06/01 01:57:58;;;;;;;7.13;5.82;;;11.90;99.90;;;;;;7344390;19;111756;-84
2022/06/01 02:00:39;;;;;;;6.20;5.60;;;11.80;99.90;;;;;;7343560;19;107185;-84
2022/06/01 02:03:14;;;;;;;8.70;5.78;;;11.80;99.90;;;;;;7344201;19;111609;-84
2022/06/01 02:06:06;;;;;;;6.43;5.65;;;11.80;99.90;;;;;;7342791;19;109262;-84
2022/06/01 02:08:49;;;;;;;7.28;5.47;;;11.70;99.90;;;;;;7344192;19;108384;-84
2022/06/01 02:14:17;;;;;;;6.00;5.15;;;11.70;99.90;;;;;;7343429;19;109640;-84
2022/06/01 02:16:51;;;;;;;6.20;5.45;;;11.70;99.90;;;;;;7349560;19;107636;-84
2022/06/01 02:19:23;;;;;;;6.95;5.47;;;11.70;99.90;;;;;;7339935;19;109272;-84
2022/06/01 02:21:54;;;;;;;5.97;4.78;;;11.70;99.90;;;;;;7341100;19;110658;-83
2022/06/01 02:24:23;;;;;;;8.20;5.10;;;11.60;99.90;;;;;;7341816;19;108261;-85
2022/06/01 02:26:52;;;;;;;6.57;4.90;;;11.60;99.90;;;;;;7341436;19;108684;-84
2022/06/01 02:29:28;;;;;;;7.47;4.57;;;11.60;99.90;;;;;;7340196;19;108035;-84
2022/06/01 02:31:58;;;;;;;7.80;4.38;;;11.60;99.90;;;;;;7340216;19;108498;-84
2022/06/01 02:34:27;;;;;;;6.43;4.55;;;11.60;99.90;;;;;;7339255;19;108950;-84
2022/06/01 02:36:56;;;;;;;6.20;4.38;;;11.60;99.90;;;;;;7341949;19;108412;-86
2022/06/01 02:39:25;;;;;;;6.32;4.13;;;11.60;99.90;;;;;;7346498;19;108729;-86
2022/06/01 02:42:25;;;;;;;8.85;4.57;;;11.60;99.90;;;;;;7339901;19;109707;-84
2022/06/01 02:44:56;;;;;;;8.43;4.00;;;11.50;99.90;;;;;;7339182;19;108599;-85
2022/06/01 02:47:26;;;;;;;4.25;3.75;;;11.50;99.90;;;;;;7341470;19;108967;-84
2022/06/01 02:49:53;;;;;;;9.10;3.42;;;11.50;99.90;;;;;;7339339;19;108085;-85
2022/06/01 02:52:21;;;;;;;7.18;3.65;;;11.50;99.90;;;;;;7341669;19;108757;-85
2022/06/01 02:54:49;;;;;;;5.68;3.50;;;11.40;99.90;;;;;;7338948;19;109121;-85
2022/06/01 02:57:16;;;;;;;5.90;3.75;;;11.40;99.90;;;;;;7341047;19;107459;-85
2022/06/01 02:59:44;;;;;;;6.47;3.70;;;11.40;99.90;;;;;;7346028;19;108463;-85
2022/06/01 03:02:11;;;;;;;5.65;3.60;;;11.40;99.90;;;;;;7339194;19;111238;-85
2022/06/01 03:04:40;;;;;;;4.93;2.80;;;11.40;99.90;;;;;;7338074;19;108461;-84
2022/06/01 03:07:07;;;;;;;6.07;3.30;;;11.30;99.90;;;;;;7343862;19;110369;-81
2022/06/01 03:09:36;;;;;;;6.80;3.70;;;11.30;99.90;;;;;;7335711;19;108191;-81
2022/06/01 03:12:04;;;;;;;6.30;3.00;;;11.30;99.90;;;;;;7338354;19;108573;-81
2022/06/01 03:14:32;;;;;;;4.82;3.35;;;11.20;99.90;;;;;;7338096;19;109794;-81
2022/06/01 03:17:00;;;;;;;6.57;3.40;;;11.20;99.90;;;;;;7339652;19;107277;-81
2022/06/01 03:19:27;;;;;;;8.32;2.90;;;11.10;99.90;;;;;;7340668;19;107954;-81
2022/06/01 03:21:54;;;;;;;5.90;3.45;;;11.10;99.90;;;;;;7345185;19;109209;-81
2022/06/01 03:24:21;;;;;;;;;;;11.10;99.90;;;;;;7341215;19;108252;-81
2022/06/01 03:26:48;;;;;;;12.75;3.42;;;11.00;99.90;;;;;;7345532;19;108150;-81
2022/06/01 03:29:21;;;;;;;4.32;2.92;;;10.90;99.90;;;;;;7343416;19;107651;-81
2022/06/01 03:31:48;;;;;;;8.10;2.97;;;10.90;99.90;;;;;;7345299;19;109382;-81
2022/06/01 03:34:15;;;;;;;5.43;3.00;;;10.90;99.90;;;;;;7339346;19;108225;-80
2022/06/01 03:36:42;;;;;;;7.90;3.40;;;10.90;99.90;;;;;;7340196;19;110065;-82
2022/06/01 03:39:10;;;;;;;5.30;3.05;;;10.80;99.90;;;;;;7339380;19;107613;-82
2022/06/01 03:41:37;;;;;;;9.52;3.10;;;10.80;99.90;;;;;;7338344;19;110168;-81
2022/06/01 03:46:52;;;;;;;9.07;2.72;;;10.80;99.90;;;;;;7342802;19;110797;-81
2022/06/01 03:49:20;;;;;;;4.45;2.75;;;10.70;99.90;;;;;;7340050;19;107162;-81
2022/06/01 03:51:47;;;;;;;3.35;2.83;;;10.80;99.90;;;;;;7340081;19;108114;-82
2022/06/01 03:54:15;;;;;;;5.10;3.00;;;10.80;99.90;;;;;;7337415;19;108872;-80
2022/06/01 03:56:43;;;;;;;5.53;3.83;;;10.80;99.90;;;;;;7335592;19;107249;-81
2022/06/01 03:59:10;;;;;;;5.20;3.30;;;10.80;99.90;;;;;;7341491;19;108109;-81
2022/06/01 04:01:37;;;;;;;5.25;3.42;;;10.80;99.90;;;;;;7340317;19;108672;-81
2022/06/01 04:04:04;;;;;;;5.15;3.17;;;10.80;99.90;;;;;;7337714;19;108977;-81
2022/06/01 04:06:31;;;;;;;4.88;3.13;;;10.80;99.90;;;;;;7345242;19;108421;-81
2022/06/01 04:08:59;;;;;;;4.55;3.10;;;10.90;99.90;;;;;;7339056;19;108626;-81
2022/06/01 04:11:26;;;;;;;6.25;3.15;;;10.90;99.90;;;;;;7339655;19;107850;-81
2022/06/01 04:13:53;;;;;;;5.47;3.40;;;10.80;99.90;;;;;;7338993;19;108134;-81
2022/06/01 04:16:20;;;;;;;7.38;3.65;;;10.80;99.90;;;;;;7335608;19;111330;-81
2022/06/01 04:18:48;;;;;;;6.10;3.45;;;10.80;99.90;;;;;;7340282;19;112449;-82
2022/06/01 04:21:21;;;;;;;6.72;3.22;;;10.80;99.90;;;;;;7340132;19;107832;-81
2022/06/01 04:23:50;;;;;;;4.80;3.10;;;10.80;99.90;;;;;;7337815;19;111620;-82
2022/06/01 04:26:17;;;;;;;10.82;3.30;;;10.90;99.90;;;;;;7339181;19;110947;-81
2022/06/01 04:28:44;;;;;;;5.88;3.28;;;10.90;99.90;;;;;;7344850;19;108893;-81
2022/06/01 04:31:12;;;;;;;7.72;3.33;;;10.90;99.90;;;;;;7338789;19;109215;-81
2022/06/01 04:33:42;;;;;;;9.73;3.13;;;11.00;99.90;;;;;;7336649;19;109038;-82
2022/06/01 04:36:10;;;;;;;5.97;3.50;;;11.00;99.90;;;;;;7337590;19;109325;-81
2022/06/01 04:38:37;;;;;;;10.55;3.42;;;11.10;99.90;;;;;;7339881;19;108471;-81
2022/06/01 04:41:06;;;;;;;4.60;3.30;;;11.10;99.90;;;;;;7338224;19;108696;-81
2022/06/01 04:43:33;;;;;;;5.88;3.20;;;11.20;99.90;;;;;;7339157;19;111058;-81
2022/06/01 04:46:00;;;;;;;5.57;3.38;;;11.20;99.90;;;;;;7338212;19;108592;-81
2022/06/01 04:48:27;;;;;;;6.97;3.60;;;11.20;99.90;;;;;;7339871;19;109708;-81
2022/06/01 04:50:57;;;;;;;6.00;3.03;;;11.40;99.90;;;;;;7344706;19;107339;-81
2022/06/01 04:53:24;;;;;;;5.43;3.45;;;11.40;99.90;;;;;;7342178;19;108730;-81
2022/06/01 04:55:52;;;;;;;7.35;3.50;;;11.50;99.90;;;;;;7342498;19;110562;-82
2022/06/01 04:58:19;;;;;;;7.25;3.55;;;11.60;99.90;;;;;;7346949;19;107929;-81
2022/06/01 05:00:46;;;;;;;5.90;3.42;;;11.60;99.90;;;;;;7344783;19;109032;-81
2022/06/01 05:03:14;;;;;;;9.82;3.67;;;11.70;99.90;;;;;;7344583;19;107494;-82
2022/06/01 05:05:41;;;;;;;4.75;3.30;;;11.80;99.90;;;;;;7344966;19;108190;-82
2022/06/01 05:08:11;;;;;;;6.80;3.88;;;11.80;99.90;;;;;;7344302;19;112002;-84
2022/06/01 05:10:39;;;;;;;5.72;3.25;;;11.90;99.90;;;;;;7346009;19;108080;-84
2022/06/01 05:13:07;;;;;;;11.05;3.20;;;12.00;99.90;;;;;;7342201;19;108943;-83
2022/06/01 05:15:37;;;;;;;6.47;3.50;;;12.00;99.90;;;;;;7341393;19;109857;-82
2022/06/01 05:18:09;;;;;;;10.73;3.42;;;12.10;99.90;;;;;;7345211;19;109156;-81
2022/06/01 05:20:36;;;;;;;8.98;3.65;;;12.20;99.90;;;;;;7341701;19;108656;-82
2022/06/01 05:23:03;;;;;;;8.68;3.65;;;12.30;99.90;;;;;;7343564;19;109597;-82
2022/06/01 05:25:32;;;;;;;7.38;3.72;;;12.40;99.90;;;;;;7345223;19;107794;-81
2022/06/01 05:27:59;;;;;;;4.97;3.60;;;12.50;99.90;;;;;;7343670;19;109115;-82
2022/06/01 05:30:26;;;;;;;7.05;3.60;;;12.50;99.90;;;;;;7342894;19;107343;-81
2022/06/01 05:32:53;;;;;;;8.68;3.97;;;12.60;99.90;;;;;;7350143;19;108283;-81
2022/06/01 05:35:20;;;;;;;;;;;12.70;99.90;;;;;;7345089;19;108389;-81
2022/06/01 05:37:47;;;;;;;7.78;3.78;;;12.80;99.90;;;;;;7345663;19;108137;-80
2022/06/01 05:40:14;;;;;;;16.38;3.63;;;12.90;99.90;;;;;;7342507;19;109265;-81
2022/06/01 05:42:41;;;;;;;7.78;3.40;;;13.00;99.90;;;;;;7345107;19;107903;-81
2022/06/01 05:45:09;;;;;;;6.30;3.63;;;13.00;99.90;;;;;;7343958;19;107982;-81
2022/06/01 05:47:39;;;;;;;9.32;4.10;;;13.10;99.90;;;;;;7344732;19;110977;-80
2022/06/01 05:50:07;;;;;;;11.32;4.05;;;13.20;99.90;;;;;;7341249;19;109583;-81
2022/06/01 05:52:38;;;;;;;7.20;3.63;;;13.30;99.90;;;;;;7344607;19;108102;-82
2022/06/01 05:55:11;;;;;;;13.48;4.45;;;13.40;99.90;;;;;;7345749;19;112545;-81
2022/06/01 05:57:38;;;;;;;11.23;3.83;;;13.50;99.90;;;;;;7343603;19;108088;-81
2022/06/01 06:00:09;;;;;;;8.40;4.00;;;13.60;99.90;;;;;;7342671;19;108344;-81
2022/06/01 06:02:38;;;;;;;8.30;4.13;;;13.70;99.90;;;;;;7342651;19;111081;-82
2022/06/01 06:06:12;;;;;;;10.38;4.53;;;13.80;99.90;;;;;;7341534;19;111484;-81
2022/06/01 06:07:56;;;;;;;8.57;4.10;;;14.00;99.90;;;;;;7343081;19;108928;-81
2022/06/01 06:10:25;;;;;;;8.45;4.50;;;14.10;99.90;;;;;;7342603;19;108552;-81
2022/06/01 06:12:53;;;;;;;12.18;4.22;;;14.20;99.90;;;;;;7340661;19;109486;-82
2022/06/01 06:15:20;;;;;;;11.18;4.72;;;14.30;99.90;;;;;;7341691;19;109181;-84
2022/06/01 06:17:53;;;;;;;9.48;4.47;;;14.40;99.90;;;;;;7348265;19;108249;-82
2022/06/01 06:20:20;;;;;;;11.77;4.53;;;14.50;99.90;;;;;;7344449;19;108658;-83
2022/06/01 06:22:47;;;;;;;8.80;4.43;;;14.50;99.90;;;;;;7346144;19;107612;-83
2022/06/01 06:25:15;;;;;;;7.85;4.63;;;14.60;99.90;;;;;;7343755;19;107463;-82
2022/06/01 06:27:42;;;;;;;11.05;5.13;;;14.60;99.90;;;;;;7344346;19;109071;-82
2022/06/01 06:30:09;;;;;;;9.90;4.95;;;14.70;99.90;;;;;;7345684;19;107693;-83
2022/06/01 06:32:36;;;;;;;13.95;5.20;;;14.80;99.90;;;;;;7345987;19;108314;-83
2022/06/01 06:35:04;;;;;;;8.60;4.80;;;14.80;99.90;;;;;;7345049;19;108924;-82
2022/06/01 06:37:31;;;;;;;13.73;5.50;;;14.80;99.90;;;;;;7342975;19;107026;-83
2022/06/01 06:39:58;;;;;;;8.80;5.20;;;14.80;99.90;;;;;;7350561;19;108348;-82
2022/06/01 06:42:25;;;;;;;11.90;4.85;;;14.90;99.90;;;;;;7344309;19;107474;-82
2022/06/01 06:44:52;;;;;;;12.02;4.65;;;14.90;99.90;;;;;;7338416;19;108978;-83
2022/06/01 06:47:19;;;;;;;10.80;4.97;;;14.90;99.90;;;;;;7338808;19;107863;-82
2022/06/01 06:49:47;;;;;;;14.30;5.60;;;14.90;99.90;;;;;;7340829;19;110319;-83
2022/06/01 06:52:14;;;;;;;9.02;5.55;;;14.90;99.90;;;;;;7339203;19;107548;-83
2022/06/01 06:54:41;;;;;;;9.18;5.35;;;15.00;99.90;;;;;;7340919;19;111995;-83
2022/06/01 06:57:09;;;;;;;13.15;6.20;;;15.20;99.90;;;;;;7339777;19;108356;-82
2022/06/01 06:59:36;;;;;;;15.10;5.97;;;15.30;99.90;;;;;;7342450;19;107608;-83
2022/06/01 07:02:04;;;;;;;15.43;6.47;;;15.40;99.90;;;;;;7344073;19;108913;-83
2022/06/01 07:04:31;;;;;;;12.27;5.95;;;15.50;99.90;;;;;;7341256;19;108104;-83
2022/06/01 07:06:59;;;;;;;10.60;5.85;;;15.50;99.90;;;;;;7340892;19;109097;-84
2022/06/01 07:09:26;;;;;;;16.92;5.25;;;15.60;99.90;;;;;;7340109;19;108124;-82
2022/06/01 07:11:53;;;;;;;8.93;5.55;;;15.80;99.90;;;;;;7338600;19;108360;-83
2022/06/01 07:14:21;;;;;;;10.90;5.78;;;16.00;99.90;;;;;;7341523;19;109395;-84
2022/06/01 07:16:48;;;;;;;9.50;5.28;;;16.10;99.90;;;;;;7342996;19;108336;-83
2022/06/01 07:19:15;;;;;;;12.70;5.45;;;16.10;99.90;;;;;;7343010;19;109965;-83
2022/06/01 07:21:42;;;;;;;8.90;5.15;;;16.20;99.90;;;;;;7345138;19;109171;-84
2022/06/01 07:24:09;;;;;;;9.25;5.28;;;16.30;99.90;;;;;;7338912;19;111470;-84
2022/06/01 07:26:40;;;;;;;10.43;5.40;;;16.40;99.90;;;;;;7342926;19;109329;-82
2022/06/01 07:29:08;;;;;;;12.55;5.75;;;16.40;99.90;;;;;;7341273;19;108218;-83
2022/06/01 07:31:35;;;;;;;8.95;5.43;;;16.40;99.90;;;;;;7339976;19;107980;-83
2022/06/01 07:34:03;;;;;;;10.00;5.05;;;16.50;99.90;;;;;;7341358;19;107960;-82
2022/06/01 07:36:30;;;;;;;8.93;5.43;;;16.70;99.90;;;;;;7341028;19;108144;-83
2022/06/01 07:44:29;;;;;;;9.13;4.88;;;17.00;99.90;;;;;;7346809;19;107917;-84
2022/06/01 07:46:57;;;;;;;13.85;4.88;;;17.20;99.90;;;;;;7337874;19;109434;-85
2022/06/01 07:49:45;;;;;;;;;;;17.30;99.90;;;;;;7341677;19;109540;-87
2022/06/01 07:52:32;;;;;;;10.38;5.22;;;17.40;99.90;;;;;;7346088;19;109143;-88
2022/06/01 07:54:59;;;;;;;8.40;4.57;;;17.50;99.90;;;;;;7340094;19;110614;-85
2022/06/01 07:57:27;;;;;;;7.05;4.53;;;17.60;99.90;;;;;;7339929;19;110470;-84
2022/06/01 07:59:54;;;;;;;8.05;4.72;;;17.70;99.90;;;;;;7341587;19;108409;-85
2022/06/01 08:02:22;;;;;;;8.57;4.95;;;17.60;99.90;;;;;;7344202;19;112249;-85
2022/06/01 08:04:49;;;;;;;7.75;5.20;;;17.60;99.90;;;;;;7342265;19;108128;-85
2022/06/01 08:07:16;;;;;;;7.65;4.85;;;17.70;99.90;;;;;;7345527;19;108557;-85
2022/06/01 08:09:43;;;;;;;6.15;5.05;;;17.70;99.90;;;;;;7342654;19;107440;-86
2022/06/01 08:14:56;;;;;;;10.75;5.50;;;17.90;99.90;;;;;;7342323;19;109060;-85
2022/06/01 08:17:23;;;;;;;9.50;5.20;;;18.10;99.90;;;;;;7341365;19;108369;-85
2022/06/01 08:19:50;;;;;;;9.57;6.03;;;18.20;99.90;;;;;;7343725;19;108550;-86
2022/06/01 08:22:17;;;;;;;7.78;4.60;;;18.20;99.90;;;;;;7341237;19;109426;-85
2022/06/01 08:24:44;;;;;;;13.85;5.28;;;18.20;99.90;;;;;;7340114;19;107359;-86
2022/06/01 08:27:12;;;;;;;8.55;5.88;;;18.30;99.90;;;;;;7338576;19;108572;-85
2022/06/01 08:29:39;;;;;;;10.80;5.90;;;18.40;99.90;;;;;;7345796;19;109061;-86
2022/06/01 08:32:07;;;;;;;7.05;5.30;;;18.50;99.90;;;;;;7342398;19;109182;-84
2022/06/01 08:34:37;;;;;;;9.20;5.68;;;18.60;99.90;;;;;;7341837;19;108470;-85
2022/06/01 08:37:05;;;;;;;9.88;5.70;;;18.60;99.90;;;;;;7340095;19;109354;-86
2022/06/01 08:39:32;;;;;;;8.40;5.38;;;18.70;99.90;;;;;;7339658;19;107625;-86
2022/06/01 08:42:01;;;;;;;8.27;4.72;;;18.70;99.90;;;;;;7343101;19;108786;-87
2022/06/01 08:44:32;;;;;;;4.95;4.45;;;18.80;99.70;;;;;;7340129;19;107431;-86
2022/06/01 08:47:10;;;;;;;6.47;5.10;;;18.70;99.30;;;;;;7340711;19;107612;-86
2022/06/01 08:49:39;;;;;;;7.78;4.97;;;18.80;99.20;;;;;;7342051;19;108351;-86
2022/06/01 08:52:07;;;;;;;5.57;3.60;;;18.80;98.80;;;;;;7345694;19;109093;-87
2022/06/01 08:54:34;;;;;;;5.97;3.72;;;18.80;98.50;;;;;;7339713;19;109265;-86
2022/06/01 08:57:14;;;;;;;3.72;2.95;;;18.90;98.30;;;;;;7337126;19;109774;-87
2022/06/01 08:59:41;;;;;;;4.15;2.53;;;19.10;97.80;;;;;;7340041;19;108340;-85
2022/06/01 09:02:28;;;;;;;5.80;3.13;;;19.20;97.80;;;;;;7339227;19;108549;-86
2022/06/01 09:05:20;;;;;;;9.75;3.35;;;19.40;97.50;;;;;;7338277;19;108014;-86
2022/06/01 09:07:57;;;;;;;7.10;3.10;;;19.50;97.20;;;;;;7342207;19;108432;-88
2022/06/01 09:10:39;;;;;;;5.05;2.85;;;19.50;96.90;;;;;;7340748;19;109110;-86
2022/06/01 09:13:23;;;;;;;4.57;2.53;;;19.50;96.90;;;;;;7343082;19;108438;-86
2022/06/01 09:16:07;;;;;;;5.35;2.67;;;19.60;96.80;;;;;;7344836;19;107475;-86
2022/06/01 09:18:54;;;;;;;3.97;2.40;;;19.60;96.50;;;;;;7339159;19;108601;-85
2022/06/01 09:24:33;;;;;;;4.68;2.35;;;19.40;95.80;;;;;;7340570;19;111860;-87
2022/06/01 09:27:03;;;;;;;4.43;2.77;;;19.30;96.10;;;;;;7340639;19;107960;-86
2022/06/01 09:29:33;;;;;;;3.17;2.28;;;19.20;96.00;;;;;;7341682;19;108439;-86
2022/06/01 09:32:04;;;;;;;4.78;2.47;;;19.10;95.80;;;;;;7341897;19;108979;-86
2022/06/01 09:35:37;;;;;;;;;;;;;;;;;;;;;
2022/06/01 09:38:52;;;;;;;2.63;1.52;;;19.10;96.00;;;;;;7340610;19;107735;-88
2022/06/01 09:41:49;;;;;;;4.10;2.40;;;19.10;95.70;;;;;;7342735;19;107852;-88
2022/06/01 09:44:32;;;;;;;3.08;2.20;;;19.10;95.60;;;;;;7339616;19;108950;-88
2022/06/01 09:47:00;;;;;;;3.42;1.85;;;19.00;95.50;;;;;;7343561;19;111383;-87
2022/06/01 09:49:31;;;;;;;4.95;2.20;;;19.10;95.40;;;;;;7343878;19;110786;-88
2022/06/01 09:52:11;;;;;;;3.33;1.85;;;19.00;95.30;;;;;;7342291;19;110717;-87
2022/06/01 09:54:43;;;;;;;5.45;2.03;;;19.10;95.20;;;;;;7343411;19;108340;-88
2022/06/01 09:57:23;;;;;;;4.30;2.08;;;19.20;95.00;;;;;;7343857;19;108006;-87
2022/06/01 10:08:29;;;;;;;8.48;2.15;;;19.90;95.30;;;;;;7342737;19;109805;-86
2022/06/01 10:11:05;;;;;;;7.05;2.17;;;20.10;95.50;;;;;;7342944;19;107545;-88
2022/06/01 10:13:33;;;;;;;2.97;1.67;;;20.20;94.70;;;;;;7347070;19;109395;-89
2022/06/01 10:17:04;;;;;;;3.03;1.80;;;20.30;94.50;;;;;;7345563;19;109493;-88
2022/06/01 10:19:32;;;;;;;3.63;1.90;;;20.30;93.70;;;;;;7346760;19;107476;-87
2022/06/01 10:22:13;;;;;;;4.72;1.60;;;20.30;93.80;;;;;;7344134;19;111354;-88
2022/06/01 10:24:46;;;;;;;6.50;1.95;;;20.20;93.40;;;;;;7345873;19;109464;-88
2022/06/01 10:27:16;;;;;;;6.72;1.50;;;20.20;93.20;;;;;;7353567;19;107516;-88
2022/06/01 10:30:19;;;;;;;4.25;1.30;;;20.10;93.00;;;;;;7345727;19;109714;-87
2022/06/01 10:33:08;;;;;;;8.63;1.40;;;19.90;92.60;;;;;;7342669;19;107203;-89
2022/06/01 10:36:07;;;;;;;3.55;1.90;;;19.80;92.40;;;;;;7345823;19;108367;-88
2022/06/01 10:39:00;;;;;;;;;;;20.00;92.80;;;;;;7345427;19;109301;-88
2022/06/01 10:41:38;;;;;;;4.55;1.73;;;20.10;93.70;;;;;;7345935;19;107273;-90
2022/06/01 10:44:26;;;;;;;8.63;1.80;;;20.30;93.20;;;;;;7350353;19;108337;-84
2022/06/01 10:47:02;;;;;;;4.47;1.70;;;20.50;92.80;;;;;;7345316;19;109520;-86
2022/06/01 10:49:48;;;;;;;4.05;1.60;;;20.50;91.60;;;;;;7345014;19;108470;-85
2022/06/01 10:52:21;;;;;;;7.95;1.40;;;20.50;91.20;;;;;;7349797;19;107585;-85
2022/06/01 10:55:18;;;;;;;5.38;1.98;;;20.60;91.50;;;;;;7343097;19;110316;-85
2022/06/01 10:57:48;;;;;;;4.03;2.60;;;20.70;91.60;;;;;;7340783;19;107170;-86
2022/06/01 11:00:21;;;;;;;4.15;2.88;;;20.50;92.10;;;;;;7344862;19;108713;-85
2022/06/01 11:03:28;;;;;;;3.90;2.72;;;20.20;91.70;;;;;;7344744;19;107944;-86
2022/06/01 11:06:23;;;;;;;5.60;3.35;;;19.80;94.60;;;;;;7341884;19;107944;-85
2022/06/01 11:09:19;;;;;;;4.78;3.78;;;19.50;95.50;;;;;;7345257;19;109319;-86
2022/06/01 11:12:01;;;;;;;5.72;3.28;;;19.30;95.80;;;;;;7342565;19;107389;-85
2022/06/01 11:14:57;;;;;;;4.03;3.63;;;19.00;96.90;;;;;;7343190;19;111481;-85
2022/06/01 11:17:33;;;;;;;6.20;4.10;;;18.80;96.80;;;;;;7350432;19;109568;-86
2022/06/01 11:20:38;;;;;;;4.60;3.60;;;18.80;98.00;;;;;;7343964;19;108170;-85
2022/06/01 11:23:09;;;;;;;4.70;3.40;;;18.90;98.20;;;;;;7344409;19;108719;-86
2022/06/01 11:25:54;;;;;;;4.55;3.47;;;19.00;98.20;;;;;;7342688;19;108195;-85
2022/06/01 11:28:44;;;;;;;3.83;3.13;;;19.30;98.60;;;;;;7342378;19;108320;-86
2022/06/01 11:31:22;;;;;;;4.93;2.97;;;19.50;97.70;;;;;;7341721;19;111983;-86
2022/06/01 11:34:23;;;;;;;4.22;1.67;;;19.60;98.60;;;;;;7344060;19;108391;-85
2022/06/01 11:37:07;;;;;;;3.35;1.88;;;19.70;96.50;;;;;;7343770;19;108277;-84
2022/06/01 11:39:37;;;;;;;3.78;2.13;;;19.70;95.90;;;;;;7341043;19;108918;-85
2022/06/01 11:42:29;;;;;;;4.90;2.00;;;19.60;96.00;;;;;;7346751;19;108412;-86
2022/06/01 11:45:02;;;;;;;4.65;2.35;;;19.50;95.60;;;;;;7341936;19;109114;-86
2022/06/01 11:48:00;;;;;;;4.30;2.47;;;19.40;95.70;;;;;;7342774;19;107518;-85
2022/06/01 11:50:53;;;;;;;3.03;2.28;;;19.30;96.00;;;;;;7342362;19;108244;-86
2022/06/01 11:53:29;;;;;;;4.07;2.60;;;19.20;96.40;;;;;;7341789;19;108315;-86
2022/06/01 11:56:22;;;;;;;6.43;2.42;;;19.20;97.40;;;;;;7341241;19;107062;-86
2022/06/01 11:59:12;;;;;;;3.13;2.08;;;19.10;97.20;;;;;;7338975;19;108994;-85
2022/06/01 12:01:45;;;;;;;2.78;1.58;;;19.10;96.90;;;;;;7338424;19;108990;-85
2022/06/01 12:04:40;;;;;;;2.33;1.63;;;19.00;96.20;;;;;;7348027;19;108649;-86
2022/06/01 12:07:26;;;;;;;2.15;1.40;;;19.10;96.10;;;;;;7340788;19;108680;-85
2022/06/01 12:10:06;;;;;;;1.60;1.48;;;18.90;96.30;;;;;;7340494;19;107233;-86
2022/06/01 12:12:33;;;;;;;2.63;1.52;;;18.90;96.30;;;;;;7343194;19;111483;-85
2022/06/01 12:15:19;;;;;;;3.33;1.30;;;18.90;96.60;;;;;;7340429;19;108792;-86
2022/06/01 12:18:07;;;;;;;1.45;1.35;;;18.90;95.90;;;;;;7340616;19;108299;-86
2022/06/01 12:20:34;;;;;;;1.30;1.20;;;19.00;96.10;;;;;;7341736;19;107679;-86
2022/06/01 12:28:54;;;;;;;3.53;1.85;;;19.00;95.90;;;;;;7348113;19;111583;-86
2022/06/01 12:31:24;;;;;;;4.90;1.80;;;19.20;96.40;;;;;;7342130;19;108028;-86
2022/06/01 12:36:22;;;;;;;4.10;1.70;;;19.90;95.40;;;;;;7341038;19;107535;-86
2022/06/01 12:38:50;;;;;;;2.67;1.50;;;20.10;94.30;;;;;;7340662;19;107390;-89
2022/06/01 12:41:27;;;;;;;2.63;1.70;;;20.20;93.80;;;;;;7339711;19;108670;-88
2022/06/01 12:43:58;;;;;;;3.10;1.63;;;20.50;94.40;;;;;;7340419;19;109864;-86
2022/06/01 12:46:29;;;;;;;3.20;1.67;;;20.80;93.60;;;;;;7338729;19;108466;-86
2022/06/01 12:49:33;;;;;;;2.08;1.42;;;21.00;93.50;;;;;;7341197;19;108333;-86
2022/06/01 12:52:22;;;;;;;2.15;1.40;;;21.10;92.80;;;;;;7343798;19;109756;-86
2022/06/01 12:54:57;;;;;;;15.73;1.77;;;21.10;92.30;;;;;;7339294;19;108183;-85
2022/06/01 12:57:31;;;;;;;4.82;1.30;;;21.10;91.90;;;;;;7338507;19;111943;-86
2022/06/01 13:00:12;;;;;;;4.03;1.48;;;21.10;92.10;;;;;;7337739;19;111263;-86
2022/06/01 13:02:42;;;;;;;4.30;1.50;;;21.20;92.30;;;;;;7340159;19;108506;-85
2022/06/01 13:05:18;;;;;;;1.50;1.25;;;21.30;92.40;;;;;;7341968;19;108476;-85
2022/06/01 13:07:50;;;;;;;2.25;1.00;;;21.40;91.90;;;;;;7341143;19;108033;-86
2022/06/01 13:10:30;;;;;;;3.70;0.90;;;21.40;91.40;;;;;;7339229;19;108389;-86
2022/06/01 13:13:10;;;;;;;1.80;1.27;;;21.50;90.80;;;;;;7342186;19;107922;-85
2022/06/01 13:15:39;;;;;;;3.22;1.50;;;21.30;90.30;;;;;;7353058;19;107770;-87
2022/06/01 13:18:13;;;;;;;3.10;1.10;;;21.30;91.00;;;;;;7344977;19;108964;-86
2022/06/01 13:21:08;;;;;;;1.77;0.80;;;21.20;90.90;;;;;;7349153;19;110975;-86
2022/06/01 13:23:50;;;;;;;0.98;0.70;;;21.20;90.90;;;;;;7344053;19;107981;-86
2022/06/01 13:26:35;;;;;;;1.05;0.57;;;21.10;90.40;;;;;;7345064;19;108409;-88
2022/06/01 13:29:36;;;;;;;0.90;0.47;;;21.10;90.50;;;;;;7347215;19;108616;-86
2022/06/01 13:32:07;;;;;;;0.85;0.75;;;21.00;90.60;;;;;;7346491;19;107572;-85
2022/06/01 13:34:40;;;;;;;0.98;0.65;;;20.90;90.20;;;;;;7346444;19;108291;-87
2022/06/01 13:37:21;;;;;;;1.83;0.90;;;20.90;90.50;;;;;;7344817;19;108631;-86
2022/06/01 13:40:19;;;;;;;2.28;1.50;;;21.00;90.60;;;;;;7348761;19;108544;-86
2022/06/01 13:42:49;;;;;;;1.83;1.40;;;21.00;90.00;;;;;;7347470;19;107937;-86
2022/06/01 13:45:19;;;;;;;1.55;1.25;;;20.90;90.00;;;;;;7346864;19;111287;-86